createdAt,value
2023-05-19T00:02:56.304Z,15.06
2023-05-19T00:05:59.193Z,15.04
2023-05-19T00:09:05.567Z,14.92
2023-05-19T00:12:08.110Z,14.88
2023-05-19T00:15:10.747Z,14.85
2023-05-19T00:18:14.230Z,14.81
2023-05-19T00:21:16.957Z,14.74
2023-05-19T00:24:18.921Z,14.69
2023-05-19T00:27:20.992Z,14.62
2023-05-19T00:30:23.142Z,14.57
2023-05-19T00:33:25.060Z,14.50
2023-05-19T00:36:27.111Z,14.40
2023-05-19T00:39:29.053Z,14.34
2023-05-19T00:42:31.062Z,14.29
2023-05-19T00:45:33.171Z,14.23
2023-05-19T00:48:35.048Z,14.17
2023-05-19T00:51:46.296Z,14.09
2023-05-19T00:54:49.368Z,14.03
2023-05-19T00:57:51.502Z,13.98
2023-05-19T01:00:53.469Z,13.90
2023-05-19T01:03:59.211Z,13.86
2023-05-19T01:07:01.348Z,13.82
2023-05-19T01:10:03.631Z,13.82
2023-05-19T01:13:06.672Z,13.86
2023-05-19T01:16:42.726Z,13.92
2023-05-19T01:20:16.946Z,13.96
2023-05-19T01:23:57.161Z,14.01
2023-05-19T01:27:24.096Z,14.04
2023-05-19T01:30:33.700Z,14.06
2023-05-19T01:33:36.520Z,14.05
2023-05-19T01:36:41.041Z,14.05
2023-05-19T01:39:44.972Z,14.00
2023-05-19T01:42:47.338Z,13.94
2023-05-19T01:45:49.472Z,13.92
2023-05-19T01:48:52.761Z,13.91
2023-05-19T01:51:54.983Z,13.88
2023-05-19T01:54:57.342Z,13.91
2023-05-19T01:57:59.195Z,13.94
2023-05-19T02:01:07.026Z,13.97
2023-05-19T02:04:15.087Z,13.99
2023-05-19T02:07:58.563Z,14.00
2023-05-19T02:11:09.638Z,14.04
2023-05-19T02:14:29.859Z,14.03
2023-05-19T02:17:36.748Z,14.02
2023-05-19T02:20:40.217Z,14.02
2023-05-19T02:23:42.505Z,14.04
2023-05-19T02:26:44.487Z,14.08
2023-05-19T02:29:46.414Z,14.07
2023-05-19T02:32:48.436Z,14.12
2023-05-19T02:35:50.972Z,14.16
2023-05-19T02:38:52.977Z,14.22
2023-05-19T02:41:54.892Z,14.27
2023-05-19T02:44:56.954Z,14.33
2023-05-19T02:47:59.659Z,14.38
2023-05-19T02:51:01.668Z,14.41
2023-05-19T02:54:03.792Z,14.47
2023-05-19T02:57:06.855Z,14.56
2023-05-19T03:00:09.557Z,14.63
2023-05-19T03:03:11.524Z,14.69
2023-05-19T03:06:14.343Z,14.77
2023-05-19T03:09:16.363Z,14.83
2023-05-19T03:12:18.316Z,14.89
2023-05-19T03:15:22.989Z,14.93
2023-05-19T03:18:26.506Z,14.97
2023-05-19T03:21:28.680Z,15.00
2023-05-19T03:24:30.935Z,14.99
2023-05-19T03:27:32.941Z,15.07
2023-05-19T03:30:34.928Z,15.12
2023-05-19T03:33:43.095Z,15.21
2023-05-19T03:36:45.299Z,15.31
2023-05-19T03:39:51.213Z,15.47
2023-05-19T03:42:54.626Z,15.63
2023-05-19T03:45:57.075Z,15.84
2023-05-19T03:49:17.678Z,16.07
2023-05-19T03:52:38.745Z,16.37
2023-05-19T03:55:57.118Z,16.67
2023-05-19T03:58:59.561Z,17.01
2023-05-19T04:02:01.511Z,17.30
2023-05-19T04:05:05.231Z,17.66
2023-05-19T04:08:07.198Z,18.02
2023-05-19T04:11:09.248Z,18.31
2023-05-19T04:14:11.186Z,18.64
2023-05-19T04:17:13.142Z,18.95
2023-05-19T04:20:15.153Z,19.25
2023-05-19T04:23:17.131Z,19.58
2023-05-19T04:26:21.778Z,19.89
2023-05-19T04:29:24.342Z,20.20
2023-05-19T04:32:26.327Z,20.47
2023-05-19T04:35:30.240Z,20.78
2023-05-19T04:38:35.106Z,21.08
2023-05-19T04:41:40.344Z,21.32
2023-05-19T04:44:42.647Z,21.53
2023-05-19T04:47:47.023Z,21.74
2023-05-19T04:50:49.628Z,22.05
2023-05-19T04:53:52.728Z,22.39
2023-05-19T04:56:55.351Z,22.67
2023-05-19T05:00:05.187Z,22.88
2023-05-19T05:03:14.742Z,23.13
2023-05-19T05:06:16.792Z,23.39
2023-05-19T05:09:20.007Z,23.56
2023-05-19T05:12:22.615Z,23.76
2023-05-19T05:15:25.411Z,24.02
2023-05-19T05:18:27.504Z,24.21
2023-05-19T05:21:29.886Z,24.42
2023-05-19T05:24:33.004Z,24.69
2023-05-19T05:27:38.332Z,24.99
2023-05-19T05:30:42.184Z,25.28
2023-05-19T05:33:45.016Z,25.56
2023-05-19T05:36:48.155Z,25.72
2023-05-19T05:39:50.393Z,25.94
2023-05-19T05:42:52.418Z,26.06
2023-05-19T05:45:57.510Z,26.21
2023-05-19T05:49:00.026Z,26.25
2023-05-19T05:52:06.180Z,26.39
2023-05-19T05:55:17.528Z,26.55
2023-05-19T05:58:21.357Z,26.74
2023-05-19T06:01:24.936Z,26.86
2023-05-19T06:04:28.575Z,26.92
2023-05-19T06:07:30.796Z,27.04
2023-05-19T06:10:33.693Z,27.28
2023-05-19T06:13:36.962Z,27.30
2023-05-19T06:16:42.049Z,27.53
2023-05-19T06:19:44.563Z,27.73
2023-05-19T06:22:46.550Z,27.97
2023-05-19T06:25:49.828Z,28.16
2023-05-19T06:28:52.398Z,28.23
2023-05-19T06:31:54.999Z,28.36
2023-05-19T06:34:57.127Z,28.48
2023-05-19T06:38:00.306Z,28.37
2023-05-19T06:41:02.232Z,28.33
2023-05-19T06:44:07.022Z,28.61
2023-05-19T06:47:10.214Z,28.53
2023-05-19T06:50:13.246Z,28.74
2023-05-19T06:53:19.721Z,28.91
2023-05-19T06:56:23.000Z,28.87
2023-05-19T06:59:26.017Z,28.71
2023-05-19T07:02:28.206Z,28.90
2023-05-19T07:05:30.618Z,29.08
2023-05-19T07:08:37.190Z,29.01
2023-05-19T07:11:40.963Z,29.01
2023-05-19T07:14:45.051Z,29.39
2023-05-19T07:17:48.066Z,29.62
2023-05-19T07:20:52.316Z,29.78
2023-05-19T07:23:55.829Z,29.61
2023-05-19T07:26:58.377Z,29.90
2023-05-19T07:30:00.271Z,30.08
2023-05-19T07:33:02.204Z,30.17
2023-05-19T07:36:05.984Z,29.96
2023-05-19T07:39:08.027Z,30.17
2023-05-19T07:42:10.249Z,30.12
2023-05-19T07:45:12.137Z,30.31
2023-05-19T07:48:14.244Z,30.55
2023-05-19T07:51:16.306Z,30.39
2023-05-19T07:54:18.527Z,30.49
2023-05-19T07:57:20.440Z,29.97
2023-05-19T08:00:22.737Z,29.68
2023-05-19T08:03:25.847Z,29.99
2023-05-19T08:06:30.106Z,29.95
2023-05-19T08:09:32.094Z,30.10
2023-05-19T08:12:34.029Z,30.26
2023-05-19T08:15:35.964Z,30.33
2023-05-19T08:18:37.916Z,30.52
2023-05-19T08:21:39.922Z,30.50
2023-05-19T08:24:43.363Z,30.85
2023-05-19T08:27:45.764Z,31.19
2023-05-19T08:30:47.751Z,30.88
2023-05-19T08:33:49.656Z,30.73
2023-05-19T08:36:51.626Z,30.37
2023-05-19T08:39:53.496Z,30.53
2023-05-19T08:42:55.477Z,30.71
2023-05-19T08:46:00.802Z,30.17
2023-05-19T08:49:10.378Z,30.14
2023-05-19T08:52:33.465Z,30.26
2023-05-19T08:55:53.397Z,30.76
2023-05-19T08:59:00.402Z,30.84
2023-05-19T09:02:04.182Z,30.42
2023-05-19T09:05:07.421Z,30.20
2023-05-19T09:08:09.521Z,30.02
2023-05-19T09:11:11.896Z,29.85
2023-05-19T09:14:13.862Z,29.52
2023-05-19T09:17:15.977Z,29.34
2023-05-19T09:20:17.962Z,29.05
2023-05-19T09:23:21.057Z,28.87
2023-05-19T09:26:23.575Z,28.48
2023-05-19T09:29:28.761Z,28.15
2023-05-19T09:32:31.601Z,28.09
2023-05-19T09:35:35.249Z,28.06
2023-05-19T09:38:38.935Z,28.01
2023-05-19T09:41:41.232Z,27.86
2023-05-19T09:44:43.814Z,27.85
2023-05-19T09:47:45.750Z,27.89
2023-05-19T09:50:49.398Z,27.85
2023-05-19T09:53:53.103Z,27.80
2023-05-19T09:57:03.685Z,27.66
2023-05-19T10:00:12.079Z,27.36
2023-05-19T10:03:16.573Z,27.28
2023-05-19T10:06:19.868Z,27.20
2023-05-19T10:09:25.988Z,27.13
2023-05-19T10:12:28.304Z,27.11
2023-05-19T10:15:31.004Z,27.04
2023-05-19T10:18:33.890Z,26.86
2023-05-19T10:21:36.631Z,26.77
2023-05-19T10:24:38.505Z,26.66
2023-05-19T10:27:41.847Z,26.50
2023-05-19T10:30:47.902Z,26.43
2023-05-19T10:34:07.996Z,26.38
2023-05-19T10:37:41.873Z,26.24
2023-05-19T10:40:51.884Z,26.13
2023-05-19T10:44:09.690Z,25.98
2023-05-19T10:47:12.351Z,25.90
2023-05-19T10:50:15.762Z,25.79
2023-05-19T10:53:19.519Z,25.68
2023-05-19T10:56:36.438Z,25.56
2023-05-19T10:59:39.432Z,25.50
2023-05-19T11:02:44.420Z,25.46
2023-05-19T11:05:46.716Z,25.39
2023-05-19T11:08:53.838Z,25.20
2023-05-19T11:11:55.777Z,25.16
2023-05-19T11:14:59.499Z,24.96
2023-05-19T11:18:02.409Z,24.85
2023-05-19T11:21:04.517Z,24.78
2023-05-19T11:24:09.073Z,24.67
2023-05-19T11:27:20.892Z,24.69
2023-05-19T11:30:23.274Z,24.64
2023-05-19T11:33:29.351Z,24.60
2023-05-19T11:36:31.925Z,24.57
2023-05-19T11:39:34.072Z,24.58
2023-05-19T11:42:37.416Z,24.54
2023-05-19T11:45:39.558Z,24.55
2023-05-19T11:48:41.742Z,24.54
2023-05-19T11:51:45.443Z,24.59
2023-05-19T11:54:48.554Z,24.66
2023-05-19T11:58:04.405Z,24.74
2023-05-19T12:01:07.030Z,24.86
2023-05-19T12:04:12.243Z,25.00
2023-05-19T12:07:23.340Z,25.13
2023-05-19T12:10:27.367Z,25.29
2023-05-19T12:13:30.530Z,25.40
2023-05-19T12:16:35.745Z,25.48
2023-05-19T12:19:37.953Z,25.61
2023-05-19T12:22:40.104Z,25.75
2023-05-19T12:25:42.074Z,25.81
2023-05-19T12:28:45.358Z,25.82
2023-05-19T12:31:47.638Z,25.88
2023-05-19T12:34:50.216Z,25.93
2023-05-19T12:37:52.224Z,26.03
2023-05-19T12:40:54.273Z,26.15
2023-05-19T12:44:17.763Z,26.56
2023-05-19T12:47:20.506Z,27.05
2023-05-19T12:50:22.403Z,27.06
2023-05-19T12:53:26.607Z,27.33
2023-05-19T12:56:29.011Z,27.69
2023-05-19T12:59:38.877Z,27.87
2023-05-19T13:02:58.076Z,28.08
2023-05-19T13:06:00.148Z,28.03
2023-05-19T13:09:02.015Z,28.05
2023-05-19T13:12:04.866Z,28.30
2023-05-19T13:15:07.371Z,28.52
2023-05-19T13:18:13.704Z,28.54
2023-05-19T13:21:15.966Z,28.40
2023-05-19T13:24:17.922Z,28.25
2023-05-19T13:27:19.790Z,28.03
2023-05-19T13:30:22.134Z,27.93
2023-05-19T13:33:24.069Z,27.83
2023-05-19T13:36:26.629Z,27.69
2023-05-19T13:39:28.616Z,27.77
2023-05-19T13:42:31.816Z,27.86
2023-05-19T13:45:33.858Z,28.06
2023-05-19T13:48:35.861Z,28.18
2023-05-19T13:51:37.951Z,28.34
2023-05-19T13:54:39.719Z,28.33
2023-05-19T13:57:43.434Z,28.47
2023-05-19T14:00:46.086Z,28.31
2023-05-19T14:03:48.318Z,28.37
2023-05-19T14:06:50.483Z,28.44
2023-05-19T14:09:52.688Z,28.46
2023-05-19T14:13:29.046Z,28.35
2023-05-19T14:16:17.448Z,28.35
2023-05-19T14:19:19.522Z,28.33
2023-05-19T14:22:21.435Z,28.33
2023-05-19T14:25:23.318Z,28.18
2023-05-19T14:28:25.246Z,28.18
2023-05-19T14:31:27.006Z,28.26
2023-05-19T14:34:29.714Z,28.40
2023-05-19T14:37:32.382Z,28.28
2023-05-19T14:40:36.969Z,28.25
2023-05-19T14:43:38.883Z,28.18
2023-05-19T14:46:40.716Z,28.13
2023-05-19T14:49:42.536Z,28.20
2023-05-19T14:52:44.526Z,28.23
2023-05-19T14:55:51.867Z,28.11
2023-05-19T14:58:53.742Z,28.10
2023-05-19T15:01:55.552Z,28.08
2023-05-19T15:04:57.338Z,27.94
2023-05-19T15:07:59.197Z,27.76
2023-05-19T15:11:00.894Z,27.76
2023-05-19T15:14:02.961Z,27.74
2023-05-19T15:17:04.853Z,27.83
2023-05-19T15:20:07.405Z,27.92
2023-05-19T15:23:09.322Z,27.95
2023-05-19T15:26:11.268Z,27.79
2023-05-19T15:29:13.156Z,27.64
2023-05-19T15:32:14.882Z,27.37
2023-05-19T15:35:16.868Z,27.12
2023-05-19T15:38:19.194Z,26.89
2023-05-19T15:41:21.796Z,26.77
2023-05-19T15:44:23.597Z,26.68
2023-05-19T15:47:26.035Z,26.51
2023-05-19T15:50:27.951Z,26.34
2023-05-19T15:53:29.775Z,26.14
2023-05-19T15:56:31.606Z,26.07
2023-05-19T15:59:33.524Z,25.91
2023-05-19T16:02:36.006Z,25.71
2023-05-19T16:05:37.911Z,25.61
2023-05-19T16:08:39.843Z,25.49
2023-05-19T16:11:41.530Z,25.34
2023-05-19T16:14:43.405Z,25.24
2023-05-19T16:17:45.330Z,25.15
2023-05-19T16:20:47.170Z,25.04
2023-05-19T16:23:49.098Z,24.92
2023-05-19T16:26:53.583Z,24.81
2023-05-19T16:29:55.574Z,24.71
2023-05-19T16:32:57.525Z,24.59
2023-05-19T16:36:00.034Z,24.44
2023-05-19T16:39:01.853Z,24.25
2023-05-19T16:42:06.716Z,24.14
2023-05-19T16:45:09.102Z,23.98
2023-05-19T16:48:11.355Z,23.84
2023-05-19T16:51:13.253Z,23.68
2023-05-19T16:54:15.067Z,23.50
2023-05-19T16:57:16.961Z,23.29
2023-05-19T17:00:19.196Z,23.09
2023-05-19T17:03:21.056Z,22.81
2023-05-19T17:06:22.900Z,22.67
2023-05-19T17:09:27.431Z,22.47
2023-05-19T17:12:29.327Z,22.27
2023-05-19T17:15:31.697Z,22.11
2023-05-19T17:18:33.560Z,21.90
2023-05-19T17:21:35.383Z,21.72
2023-05-19T17:24:37.233Z,21.55
2023-05-19T17:27:39.289Z,21.38
2023-05-19T17:30:41.459Z,21.24
2023-05-19T17:33:43.320Z,21.01
2023-05-19T17:36:45.305Z,20.90
2023-05-19T17:39:47.211Z,20.79
2023-05-19T17:42:49.064Z,20.65
2023-05-19T17:45:51.003Z,20.51
2023-05-19T17:48:52.885Z,20.34
2023-05-19T17:51:55.084Z,20.20
2023-05-19T17:54:57.300Z,20.09
2023-05-19T17:57:59.212Z,19.92
2023-05-19T18:01:01.384Z,19.82
2023-05-19T18:04:03.892Z,19.67
2023-05-19T18:07:09.024Z,19.51
2023-05-19T18:10:11.840Z,19.45
2023-05-19T18:13:14.380Z,19.28
2023-05-19T18:16:16.580Z,19.18
2023-05-19T18:19:18.513Z,19.07
2023-05-19T18:22:20.690Z,18.95
2023-05-19T18:25:25.353Z,18.82
2023-05-19T18:28:27.176Z,18.74
2023-05-19T18:31:29.203Z,18.66
2023-05-19T18:34:31.172Z,18.58
2023-05-19T18:37:34.586Z,18.49
2023-05-19T18:40:36.586Z,18.48
2023-05-19T18:43:39.141Z,18.48
2023-05-19T18:46:41.245Z,18.47
2023-05-19T18:49:43.159Z,18.48
2023-05-19T18:52:44.993Z,18.53
2023-05-19T18:55:46.848Z,18.53
2023-05-19T18:58:48.716Z,18.56
2023-05-19T19:01:50.671Z,18.58
2023-05-19T19:04:52.577Z,18.60
2023-05-19T19:07:54.545Z,18.59
2023-05-19T19:11:00.228Z,18.60
2023-05-19T19:14:02.379Z,18.59
2023-05-19T19:17:04.389Z,18.57
2023-05-19T19:20:09.648Z,18.54
2023-05-19T19:23:11.794Z,18.51
2023-05-19T19:26:13.582Z,18.46
2023-05-19T19:29:16.746Z,18.47
2023-05-19T19:32:18.660Z,18.45
2023-05-19T19:35:20.930Z,18.43
2023-05-19T19:38:22.803Z,18.40
2023-05-19T19:41:26.201Z,18.34
2023-05-19T19:44:27.994Z,18.30
2023-05-19T19:47:29.905Z,18.26
2023-05-19T19:50:32.933Z,18.20
2023-05-19T19:53:34.903Z,18.15
2023-05-19T19:56:36.825Z,18.12
2023-05-19T19:59:38.694Z,18.04
2023-05-19T20:02:55.266Z,17.96
2023-05-19T20:06:03.127Z,17.92
2023-05-19T20:09:05.310Z,17.84
2023-05-19T20:12:07.425Z,17.75
2023-05-19T20:15:09.812Z,17.67
2023-05-19T20:18:12.157Z,17.60
2023-05-19T20:21:14.056Z,17.55
2023-05-19T20:24:15.958Z,17.49
2023-05-19T20:27:17.885Z,17.41
2023-05-19T20:30:19.911Z,17.33
2023-05-19T20:33:21.789Z,17.33
2023-05-19T20:36:23.603Z,17.30
2023-05-19T20:39:25.587Z,17.43
2023-05-19T20:42:27.429Z,17.60
2023-05-19T20:45:29.349Z,17.71
2023-05-19T20:48:31.597Z,17.75
2023-05-19T20:51:33.528Z,17.80
2023-05-19T20:54:35.588Z,17.86
2023-05-19T20:57:37.529Z,17.91
2023-05-19T21:00:39.448Z,17.95
2023-05-19T21:03:41.369Z,17.97
2023-05-19T21:06:43.338Z,17.96
2023-05-19T21:09:46.688Z,17.94
2023-05-19T21:12:48.757Z,17.92
2023-05-19T21:15:50.774Z,17.89
2023-05-19T21:18:52.771Z,17.87
2023-05-19T21:21:54.584Z,17.84
2023-05-19T21:24:57.050Z,17.82
2023-05-19T21:27:58.996Z,17.83
2023-05-19T21:31:00.966Z,17.85
2023-05-19T21:34:04.234Z,17.85
2023-05-19T21:37:06.057Z,17.82
2023-05-19T21:40:08.516Z,17.81
2023-05-19T21:43:11.163Z,17.77
2023-05-19T21:46:13.175Z,17.74
2023-05-19T21:49:15.131Z,17.71
2023-05-19T21:52:16.929Z,17.63
2023-05-19T21:55:18.840Z,17.58
2023-05-19T21:58:20.743Z,17.53
2023-05-19T22:01:22.724Z,17.53
2023-05-19T22:04:24.685Z,17.50
2023-05-19T22:07:27.098Z,17.46
2023-05-19T22:10:29.061Z,17.41
2023-05-19T22:13:31.985Z,17.41
2023-05-19T22:16:35.207Z,17.39
2023-05-19T22:19:37.489Z,17.38
2023-05-19T22:22:39.377Z,17.36
2023-05-19T22:25:41.550Z,17.35
2023-05-19T22:28:43.472Z,17.32
2023-05-19T22:31:45.397Z,17.31
2023-05-19T22:34:47.281Z,17.24
2023-05-19T22:37:49.237Z,17.20
2023-05-19T22:40:51.217Z,17.14
2023-05-19T22:43:53.022Z,17.03
2023-05-19T22:46:54.942Z,16.98
2023-05-19T22:49:57.258Z,16.90
2023-05-19T22:52:59.270Z,16.87
2023-05-19T22:56:01.170Z,16.82
2023-05-19T22:59:03.016Z,16.78
2023-05-19T23:02:05.810Z,16.70
2023-05-19T23:05:08.352Z,16.64
2023-05-19T23:08:10.170Z,16.62
2023-05-19T23:11:12.111Z,16.61
2023-05-19T23:14:13.985Z,16.56
2023-05-19T23:17:15.765Z,16.56
2023-05-19T23:20:17.685Z,16.53
2023-05-19T23:23:19.564Z,16.50
2023-05-19T23:26:21.719Z,16.48
2023-05-19T23:29:23.622Z,16.46
2023-05-19T23:32:25.577Z,16.45
2023-05-19T23:35:27.505Z,16.40
2023-05-19T23:38:29.381Z,16.33
2023-05-19T23:41:31.534Z,16.28
2023-05-19T23:44:33.339Z,16.24
2023-05-19T23:47:35.201Z,16.17
2023-05-19T23:50:37.026Z,16.13
2023-05-19T23:53:39.187Z,16.07
2023-05-19T23:56:41.088Z,16.05
2023-05-19T23:59:43.166Z,16.00
